Vingaren — OZ2131 — position and weather

sailwx.info

Track history (hours):
 
Tides and Currents Weather Stations Pressure Air Temp Water Temp Dewpoint Dewpoint Depression Visibility Wind Speed Wind Dir Waves Ship Positions

Vingaren

Last reported at 2015-Jul-28 14:28 UTC. Time now 2015-Jul-28 19:49 UTC.
Position N 55°40' E 015°32'.

Length 89 m; draft 3.9 m.

Type: Cargo ship. MMSI: 231844000.

Date/timePositionNaut miles runAvg speedWind from/ knotsBaromVisibWave heightAir tempDewpointWater temp
2015-Jul-28 14:28N 55°40' E 015°32'1010.5
2015-Jul-28 13:33N 55°35' E 015°17'1110.7
2015-Jul-28 12:34N 55°30' E 015°01'1110.7
2015-Jul-28 11:34N 55°25' E 014°44'1010.2
2015-Jul-28 10:34N 55°18' E 014°30'1010.1
2015-Jul-28 09:34N 55°11' E 014°18'1010.1
2015-Jul-28 08:33N 55°11' E 014°00'1010.5
2015-Jul-28 07:34N 55°12' E 013°42'1110.5
2015-Jul-28 06:32N 55°13' E 013°23'1010.4
2015-Jul-28 05:33N 55°14' E 013°05'1110.8
2015-Jul-28 04:33N 55°16' E 012°47'8 8.3
2015-Jul-28 03:34N 55°23' E 012°39'10 9.6
2015-Jul-28 02:34N 55°33' E 012°42'9 8.9
2015-Jul-28 01:34N 55°42' E 012°41'10 9.6
2015-Jul-28 00:33N 55°51' E 012°40'9 9.1
2015-Jul-27 23:34N 56°00' E 012°38'8 7.8
2015-Jul-27 22:33N 56°07' E 012°31'9 8.9
2015-Jul-27 21:33N 56°11' E 012°17'10 9.6
2015-Jul-27 20:34N 56°09' E 011°60'10 9.8
2015-Jul-27 19:33N 56°08' E 011°42'  
2015-Jul-19 14:32N 55°30' E 009°30'  
Track history (hours):
 
Tides and Currents Weather Stations Pressure Air Temp Water Temp Dewpoint Dewpoint Depression Visibility Wind Speed Wind Dir Waves Ship Positions

Vingaren

Last reported at 2015-Jul-28 14:28 UTC. Time now 2015-Jul-28 19:49 UTC.
Position N 55°40' E 015°32'.

Length 89 m; draft 3.9 m.

Type: Cargo ship. MMSI: 231844000.

Date/timePositionNaut miles runAvg speedWind from/ knotsBaromVisibWave heightAir tempDewpointWater temp
2015-Jul-28 14:28N 55°40' E 015°32'1010.5
2015-Jul-28 13:33N 55°35' E 015°17'1110.7
2015-Jul-28 12:34N 55°30' E 015°01'1110.7
2015-Jul-28 11:34N 55°25' E 014°44'1010.2
2015-Jul-28 10:34N 55°18' E 014°30'1010.1
2015-Jul-28 09:34N 55°11' E 014°18'1010.1
2015-Jul-28 08:33N 55°11' E 014°00'1010.5
2015-Jul-28 07:34N 55°12' E 013°42'1110.5
2015-Jul-28 06:32N 55°13' E 013°23'1010.4
2015-Jul-28 05:33N 55°14' E 013°05'1110.8
2015-Jul-28 04:33N 55°16' E 012°47'8 8.3
2015-Jul-28 03:34N 55°23' E 012°39'10 9.6
2015-Jul-28 02:34N 55°33' E 012°42'9 8.9
2015-Jul-28 01:34N 55°42' E 012°41'10 9.6
2015-Jul-28 00:33N 55°51' E 012°40'9 9.1
2015-Jul-27 23:34N 56°00' E 012°38'8 7.8
2015-Jul-27 22:33N 56°07' E 012°31'9 8.9
2015-Jul-27 21:33N 56°11' E 012°17'10 9.6
2015-Jul-27 20:34N 56°09' E 011°60'10 9.8
2015-Jul-27 19:33N 56°08' E 011°42'  
2015-Jul-19 14:32N 55°30' E 009°30'  

Dump ship's entire track history